createdAt,value
2018-10-17T00:00:18.184Z,101967.95
2018-10-17T00:02:47.167Z,101966.30
2018-10-17T00:05:16.073Z,101965.59
2018-10-17T00:07:44.867Z,101966.14
2018-10-17T00:10:15.007Z,101958.72
2018-10-17T00:12:43.889Z,101964.87
2018-10-17T00:15:12.700Z,101964.32
2018-10-17T00:17:41.579Z,101959.55
2018-10-17T00:20:11.031Z,101961.27
2018-10-17T00:22:39.983Z,101957.37
2018-10-17T00:25:09.040Z,101961.17
2018-10-17T00:27:37.891Z,101956.97
2018-10-17T00:30:10.168Z,101958.35
2018-10-17T00:32:39.045Z,101951.61
2018-10-17T00:35:08.798Z,101952.69
2018-10-17T00:37:37.726Z,101953.03
2018-10-17T00:40:07.160Z,101954.88
2018-10-17T00:42:36.408Z,101952.84
2018-10-17T00:45:06.231Z,101955.83
2018-10-17T00:47:35.155Z,101952.19
2018-10-17T00:50:04.711Z,101949.45
2018-10-17T00:52:33.924Z,101947.41
2018-10-17T00:55:02.788Z,101945.58
2018-10-17T00:57:31.648Z,101938.48
2018-10-17T01:00:00.462Z,101939.70
2018-10-17T01:02:29.492Z,101945.58
2018-10-17T01:04:58.387Z,101935.58
2018-10-17T01:07:27.355Z,101939.79
2018-10-17T01:09:56.233Z,101940.21
2018-10-17T01:12:25.029Z,101940.00
2018-10-17T01:14:53.916Z,101932.80
2018-10-17T01:17:23.000Z,101932.59
2018-10-17T01:19:51.837Z,101937.86
2018-10-17T01:22:20.728Z,101933.50
2018-10-17T01:24:49.646Z,101935.33
2018-10-17T01:27:18.596Z,101932.59
2018-10-17T01:29:47.478Z,101933.15
2018-10-17T01:32:16.347Z,101933.75
2018-10-17T01:34:45.231Z,101932.03
2018-10-17T01:37:14.147Z,101937.62
2018-10-17T01:39:43.180Z,101933.51
2018-10-17T01:42:12.062Z,101929.19
2018-10-17T01:44:40.920Z,101931.70
2018-10-17T01:47:09.769Z,101932.05
2018-10-17T01:49:38.649Z,101924.05
2018-10-17T01:52:07.837Z,101922.11
2018-10-17T01:54:36.691Z,101923.16
2018-10-17T01:57:06.347Z,101912.53
2018-10-17T01:59:35.384Z,101916.88
2018-10-17T02:02:04.489Z,101914.36
2018-10-17T02:04:33.401Z,101908.88
2018-10-17T02:07:02.288Z,101906.14
2018-10-17T02:09:31.103Z,101910.16
2018-10-17T02:11:59.949Z,101906.16
2018-10-17T02:14:28.753Z,101909.70
2018-10-17T02:16:57.788Z,101902.52
2018-10-17T02:19:26.618Z,101906.03
2018-10-17T02:21:55.485Z,101901.12
2018-10-17T02:24:24.288Z,101903.72
2018-10-17T02:26:53.182Z,101906.00
2018-10-17T02:29:22.103Z,101906.11
2018-10-17T02:31:51.022Z,101905.44
2018-10-17T02:34:19.832Z,101906.81
2018-10-17T02:36:48.731Z,101913.34
2018-10-17T02:39:17.579Z,101915.06
2018-10-17T02:41:46.521Z,101910.16
2018-10-17T02:44:15.378Z,101908.69
2018-10-17T02:46:44.246Z,101910.50
2018-10-17T02:49:13.150Z,101904.09
2018-10-17T02:51:41.942Z,101908.42
2018-10-17T02:54:10.906Z,101912.52
2018-10-17T02:56:39.760Z,101910.05
2018-10-17T02:59:08.657Z,101909.70
2018-10-17T03:01:37.558Z,101908.00
2018-10-17T03:04:06.397Z,101908.66
2018-10-17T03:06:35.337Z,101906.73
2018-10-17T03:09:06.283Z,101899.11
2018-10-17T03:11:35.160Z,101904.22
2018-10-17T03:14:04.004Z,101903.19
2018-10-17T03:16:33.199Z,101905.46
2018-10-17T03:19:02.229Z,101905.59
2018-10-17T03:21:31.056Z,101907.97
2018-10-17T03:23:59.940Z,101901.84
2018-10-17T03:26:28.968Z,101902.05
2018-10-17T03:28:57.864Z,101909.23
2018-10-17T03:31:26.951Z,101908.43
2018-10-17T03:33:55.741Z,101911.40
2018-10-17T03:36:24.859Z,101906.96
2018-10-17T03:38:53.724Z,101902.84
2018-10-17T03:41:22.556Z,101910.61
2018-10-17T03:43:51.495Z,101902.05
2018-10-17T03:46:20.305Z,101900.66
2018-10-17T03:48:49.166Z,101905.12
2018-10-17T03:51:18.108Z,101899.08
2018-10-17T03:53:46.984Z,101904.64
2018-10-17T03:56:15.816Z,101900.22
2018-10-17T03:58:44.731Z,101902.03
2018-10-17T04:01:13.683Z,101904.31
2018-10-17T04:03:42.412Z,101907.16
2018-10-17T04:06:11.325Z,101905.23
2018-10-17T04:08:40.239Z,101902.33
2018-10-17T04:11:09.153Z,101907.92
2018-10-17T04:13:38.161Z,101904.95
2018-10-17T04:16:07.099Z,101905.30
2018-10-17T04:18:35.901Z,101908.47
2018-10-17T04:21:05.204Z,101909.40
2018-10-17T04:23:34.024Z,101915.98
2018-10-17T04:26:02.948Z,101910.17
2018-10-17T04:28:31.765Z,101909.59
2018-10-17T04:31:00.762Z,101920.77
2018-10-17T04:33:29.624Z,101925.13
2018-10-17T04:35:58.790Z,101925.02
2018-10-17T04:38:27.705Z,101925.84
2018-10-17T04:40:56.617Z,101928.70
2018-10-17T04:43:25.462Z,101923.31
2018-10-17T04:45:54.475Z,101920.23
2018-10-17T04:48:23.704Z,101914.42
2018-10-17T04:50:52.594Z,101913.16
2018-10-17T04:53:21.447Z,101916.36
2018-10-17T04:55:50.349Z,101916.91
2018-10-17T04:58:19.194Z,101914.74
2018-10-17T05:00:47.985Z,101916.77
2018-10-17T05:03:16.914Z,101916.11
2018-10-17T05:05:45.813Z,101915.55
2018-10-17T05:08:14.697Z,101919.94
2018-10-17T05:10:43.580Z,101916.23
2018-10-17T05:13:12.655Z,101918.94
2018-10-17T05:15:41.277Z,101918.22
2018-10-17T05:18:10.179Z,101919.62
2018-10-17T05:20:39.007Z,101923.14
2018-10-17T05:23:08.046Z,101915.34
2018-10-17T05:25:36.889Z,101918.47
2018-10-17T05:28:05.976Z,101922.27
2018-10-17T05:30:40.918Z,101923.47
2018-10-17T05:33:09.809Z,101916.08
2018-10-17T05:35:38.665Z,101918.72
2018-10-17T05:38:07.647Z,101921.23
2018-10-17T05:40:36.496Z,101917.70
2018-10-17T05:43:05.456Z,101926.02
2018-10-17T05:45:34.352Z,101923.97
2018-10-17T05:48:09.228Z,101926.95
2018-10-17T05:50:38.057Z,101924.06
2018-10-17T05:53:07.014Z,101929.47
2018-10-17T05:55:35.945Z,101928.14
2018-10-17T05:58:05.250Z,101927.52
2018-10-17T06:00:34.151Z,101924.22
2018-10-17T06:03:03.190Z,101929.91
2018-10-17T06:05:32.069Z,101930.56
2018-10-17T06:08:00.968Z,101939.14
2018-10-17T06:10:29.865Z,101931.15
2018-10-17T06:12:58.691Z,101927.39
2018-10-17T06:15:27.540Z,101937.42
2018-10-17T06:17:56.344Z,101928.50
2018-10-17T06:20:25.621Z,101934.48
2018-10-17T06:22:54.508Z,101923.07
2018-10-17T06:25:23.404Z,101924.97
2018-10-17T06:27:52.239Z,101930.88
2018-10-17T06:30:21.149Z,101931.93
2018-10-17T06:32:50.084Z,101932.55
2018-10-17T06:35:19.077Z,101934.03
2018-10-17T06:37:47.804Z,101935.96
2018-10-17T06:40:16.677Z,101931.40
2018-10-17T06:42:45.499Z,101930.94
2018-10-17T06:45:14.477Z,101924.56
2018-10-17T06:47:43.320Z,101926.05
2018-10-17T06:50:12.180Z,101933.03
2018-10-17T06:52:41.040Z,101924.59
2018-10-17T06:55:10.075Z,101932.61
2018-10-17T06:57:39.268Z,101937.05
2018-10-17T07:00:09.478Z,101929.20
2018-10-17T07:02:38.339Z,101951.23
2018-10-17T07:05:08.281Z,101951.55
2018-10-17T07:07:37.131Z,101953.50
2018-10-17T07:10:06.221Z,101956.55
2018-10-17T07:12:35.064Z,101948.58
2018-10-17T07:15:04.753Z,101957.67
2018-10-17T07:17:33.668Z,101954.05
2018-10-17T07:20:02.540Z,101944.05
2018-10-17T07:22:31.939Z,101940.95
2018-10-17T07:25:00.824Z,101931.63
2018-10-17T07:27:29.685Z,101935.65
2018-10-17T07:29:58.485Z,101940.72
2018-10-17T07:32:27.452Z,101935.39
2018-10-17T07:34:56.391Z,101932.45
2018-10-17T07:37:25.244Z,101939.38
2018-10-17T07:39:54.093Z,101936.28
2018-10-17T07:42:23.133Z,101942.69
2018-10-17T07:44:51.924Z,101947.17
2018-10-17T07:47:20.946Z,101941.38
2018-10-17T07:49:49.788Z,101946.28
2018-10-17T07:52:18.659Z,101946.77
2018-10-17T07:54:47.448Z,101949.44
2018-10-17T07:57:16.291Z,101941.23
2018-10-17T07:59:45.328Z,101946.98
2018-10-17T08:02:14.123Z,101954.59
2018-10-17T08:04:42.963Z,101953.95
2018-10-17T08:07:11.959Z,101954.17
2018-10-17T08:09:40.824Z,101949.98
2018-10-17T08:12:10.050Z,101953.23
2018-10-17T08:14:40.907Z,101943.86
2018-10-17T08:17:10.463Z,101953.06
2018-10-17T08:19:39.348Z,101957.83
2018-10-17T08:22:08.160Z,101957.27
2018-10-17T08:24:37.057Z,101962.01
2018-10-17T08:27:06.153Z,101968.26
2018-10-17T08:29:34.968Z,101960.93
2018-10-17T08:32:03.760Z,101953.89
2018-10-17T08:34:32.604Z,101957.36
2018-10-17T08:37:01.845Z,101960.11
2018-10-17T08:39:30.446Z,101964.58
2018-10-17T08:41:59.329Z,101965.45
2018-10-17T08:44:28.216Z,101968.17
2018-10-17T08:46:57.378Z,101971.55
2018-10-17T08:49:26.330Z,101968.64
2018-10-17T08:51:55.525Z,101963.22
2018-10-17T08:54:24.356Z,101963.70
2018-10-17T08:56:53.194Z,101953.48
2018-10-17T08:59:21.990Z,101957.70
2018-10-17T09:01:50.963Z,101961.27
2018-10-17T09:04:19.776Z,101952.80
2018-10-17T09:06:48.725Z,101959.36
2018-10-17T09:09:17.577Z,101953.66
2018-10-17T09:11:46.471Z,101956.52
2018-10-17T09:14:15.439Z,101957.39
2018-10-17T09:16:44.315Z,101959.84
2018-10-17T09:19:13.111Z,101963.10
2018-10-17T09:21:42.162Z,101963.87
2018-10-17T09:24:10.889Z,101963.95
2018-10-17T09:26:39.780Z,101965.04
2018-10-17T09:29:08.984Z,101965.81
2018-10-17T09:31:37.899Z,101964.22
2018-10-17T09:34:06.809Z,101964.28
2018-10-17T09:36:35.683Z,101968.89
2018-10-17T09:39:07.412Z,101964.92
2018-10-17T09:41:36.314Z,101966.45
2018-10-17T09:44:05.219Z,101967.22
2018-10-17T09:46:34.100Z,101964.97
2018-10-17T09:49:02.931Z,101962.32
2018-10-17T09:51:32.205Z,101965.66
2018-10-17T09:54:01.046Z,101967.05
2018-10-17T09:56:29.948Z,101968.41
2018-10-17T09:58:58.794Z,101971.39
2018-10-17T10:01:34.304Z,101962.13
2018-10-17T10:04:03.290Z,101957.24
2018-10-17T10:06:32.148Z,101960.99
2018-10-17T10:09:01.043Z,101957.62
2018-10-17T10:11:29.833Z,101958.36
2018-10-17T10:13:59.148Z,101961.14
2018-10-17T10:16:28.171Z,101962.16
2018-10-17T10:18:57.060Z,101954.82
2018-10-17T10:21:26.264Z,101951.50
2018-10-17T10:23:55.150Z,101951.67
2018-10-17T10:26:23.917Z,101952.13
2018-10-17T10:28:52.873Z,101952.55
2018-10-17T10:31:21.873Z,101947.20
2018-10-17T10:33:50.801Z,101947.23
2018-10-17T10:36:19.763Z,101949.63
2018-10-17T10:38:48.664Z,101951.23
2018-10-17T10:41:17.872Z,101953.61
2018-10-17T10:43:46.753Z,101948.87
2018-10-17T10:46:15.634Z,101943.77
2018-10-17T10:48:44.540Z,101934.22
2018-10-17T10:51:13.482Z,101937.80
2018-10-17T10:53:42.345Z,101938.41
2018-10-17T10:56:11.298Z,101926.95
2018-10-17T10:58:40.184Z,101936.44
2018-10-17T11:01:09.374Z,101931.89
2018-10-17T11:03:38.201Z,101930.48
2018-10-17T11:06:07.180Z,101924.77
2018-10-17T11:08:36.031Z,101923.16
2018-10-17T11:11:05.422Z,101921.36
2018-10-17T11:13:34.328Z,101923.52
2018-10-17T11:16:03.182Z,101923.73
2018-10-17T11:18:32.110Z,101925.30
2018-10-17T11:21:01.040Z,101914.29
2018-10-17T11:23:29.906Z,101926.44
2018-10-17T11:25:58.816Z,101917.91
2018-10-17T11:28:27.746Z,101920.05
2018-10-17T11:30:56.664Z,101918.88
2018-10-17T11:33:25.472Z,101915.28
2018-10-17T11:35:54.488Z,101912.33
2018-10-17T11:38:23.306Z,101914.61
2018-10-17T11:40:52.231Z,101912.85
2018-10-17T11:43:21.144Z,101908.34
2018-10-17T11:45:50.025Z,101905.81
2018-10-17T11:48:18.827Z,101911.24
2018-10-17T11:50:47.732Z,101909.44
2018-10-17T11:53:16.632Z,101902.41
2018-10-17T11:55:45.511Z,101904.84
2018-10-17T11:58:14.359Z,101895.11
2018-10-17T12:00:43.248Z,101890.47
2018-10-17T12:03:12.197Z,101888.91
2018-10-17T12:05:41.279Z,101889.47
2018-10-17T12:08:10.010Z,101890.97
2018-10-17T12:10:38.840Z,101888.14
2018-10-17T12:13:07.702Z,101887.13
2018-10-17T12:15:41.268Z,101886.89
2018-10-17T12:18:10.738Z,101892.59
2018-10-17T12:20:39.637Z,101886.63
2018-10-17T12:23:08.464Z,101888.38
2018-10-17T12:25:37.301Z,101881.56
2018-10-17T12:28:06.623Z,101880.13
2018-10-17T12:30:35.408Z,101876.00
2018-10-17T12:33:04.584Z,101872.04
2018-10-17T12:35:33.388Z,101880.00
2018-10-17T12:38:02.314Z,101878.44
2018-10-17T12:40:31.336Z,101871.06
2018-10-17T12:43:00.122Z,101870.86
2018-10-17T12:45:29.080Z,101870.86
2018-10-17T12:47:57.974Z,101869.26
2018-10-17T12:50:26.818Z,101868.28
2018-10-17T12:52:55.878Z,101868.25
2018-10-17T12:55:24.593Z,101871.48
2018-10-17T12:57:53.428Z,101871.07
2018-10-17T13:00:24.072Z,101868.56
2018-10-17T13:02:52.918Z,101867.70
2018-10-17T13:05:21.734Z,101862.98
2018-10-17T13:07:50.618Z,101860.55
2018-10-17T13:10:19.585Z,101857.30
2018-10-17T13:12:48.366Z,101860.84
2018-10-17T13:15:17.276Z,101860.63
2018-10-17T13:17:46.247Z,101862.95
2018-10-17T13:20:15.234Z,101860.55
2018-10-17T13:22:44.748Z,101859.42
2018-10-17T13:25:13.731Z,101866.72
2018-10-17T13:27:42.563Z,101866.75
2018-10-17T13:30:11.505Z,101867.04
2018-10-17T13:32:40.347Z,101868.61
2018-10-17T13:35:09.372Z,101864.64
2018-10-17T13:37:38.149Z,101859.74
2018-10-17T13:40:07.116Z,101866.19
2018-10-17T13:42:36.000Z,101870.75
2018-10-17T13:45:10.853Z,101866.97
2018-10-17T13:47:39.753Z,101866.79
2018-10-17T13:50:08.785Z,101872.63
2018-10-17T13:52:37.593Z,101869.47
2018-10-17T13:55:07.256Z,101871.11
2018-10-17T13:57:36.514Z,101868.53
2018-10-17T14:00:07.012Z,101870.30
2018-10-17T14:02:35.841Z,101873.02
2018-10-17T14:05:05.634Z,101872.91
2018-10-17T14:07:34.514Z,101868.70
2018-10-17T14:10:03.988Z,101864.05
2018-10-17T14:12:33.151Z,101860.36
2018-10-17T14:15:02.025Z,101866.55
2018-10-17T14:17:30.896Z,101868.29
2018-10-17T14:19:59.740Z,101868.02
2018-10-17T14:22:29.023Z,101865.64
2018-10-17T14:24:58.028Z,101864.47
2018-10-17T14:27:26.984Z,101864.56
2018-10-17T14:29:55.853Z,101866.99
2018-10-17T14:32:24.714Z,101865.90
2018-10-17T14:34:53.596Z,101867.94
2018-10-17T14:37:22.771Z,101868.38
2018-10-17T14:39:51.643Z,101869.61
2018-10-17T14:42:20.602Z,101872.97
2018-10-17T14:44:50.105Z,101874.57
2018-10-17T14:47:18.983Z,101875.30
2018-10-17T14:49:47.860Z,101875.83
2018-10-17T14:52:16.713Z,101871.95
2018-10-17T14:54:45.895Z,101874.53
2018-10-17T14:57:14.827Z,101875.94
2018-10-17T14:59:43.577Z,101876.44
2018-10-17T15:02:12.465Z,101876.27
2018-10-17T15:04:41.324Z,101875.26
2018-10-17T15:07:10.130Z,101878.42
2018-10-17T15:09:38.968Z,101883.62
2018-10-17T15:12:07.946Z,101875.27
2018-10-17T15:14:36.774Z,101873.53
2018-10-17T15:17:05.819Z,101882.66
2018-10-17T15:19:34.753Z,101878.69
2018-10-17T15:22:03.520Z,101878.31
2018-10-17T15:24:32.481Z,101879.08
2018-10-17T15:27:01.375Z,101883.64
2018-10-17T15:29:30.161Z,101879.45
2018-10-17T15:31:59.009Z,101881.08
2018-10-17T15:34:27.838Z,101886.65
2018-10-17T15:36:56.701Z,101882.36
2018-10-17T15:39:25.653Z,101895.39
2018-10-17T15:41:54.810Z,101898.00
2018-10-17T15:44:23.720Z,101899.59
2018-10-17T15:46:52.512Z,101905.73
2018-10-17T15:49:21.410Z,101902.94
2018-10-17T15:51:50.245Z,101905.67
2018-10-17T15:54:19.123Z,101909.39
2018-10-17T15:56:47.941Z,101909.34
2018-10-17T15:59:16.714Z,101912.88
2018-10-17T16:01:45.574Z,101915.55
2018-10-17T16:04:14.774Z,101915.28
2018-10-17T16:06:43.752Z,101913.69
2018-10-17T16:09:13.067Z,101922.48
2018-10-17T16:11:42.102Z,101918.42
2018-10-17T16:14:10.855Z,101924.27
2018-10-17T16:16:39.741Z,101923.58
2018-10-17T16:19:08.593Z,101917.28
2018-10-17T16:21:37.456Z,101921.83
2018-10-17T16:24:06.469Z,101923.95
2018-10-17T16:26:35.344Z,101926.65
2018-10-17T16:29:04.229Z,101933.48
2018-10-17T16:31:33.032Z,101938.37
2018-10-17T16:34:01.881Z,101942.40
2018-10-17T16:36:30.707Z,101940.75
2018-10-17T16:38:59.543Z,101948.84
2018-10-17T16:41:28.623Z,101947.84
2018-10-17T16:43:57.423Z,101946.88
2018-10-17T16:46:26.270Z,101949.30
2018-10-17T16:48:55.089Z,101952.33
2018-10-17T16:51:24.039Z,101960.02
2018-10-17T16:53:52.941Z,101952.13
2018-10-17T16:56:21.853Z,101963.92
2018-10-17T16:58:50.681Z,101960.38
2018-10-17T17:01:19.827Z,101964.78
2018-10-17T17:03:48.758Z,101975.34
2018-10-17T17:06:18.023Z,101981.66
2018-10-17T17:08:46.908Z,101986.74
2018-10-17T17:11:15.692Z,101993.05
2018-10-17T17:13:44.597Z,101994.66
2018-10-17T17:16:13.479Z,101995.61
2018-10-17T17:18:42.373Z,101998.91
2018-10-17T17:21:11.261Z,102003.50
2018-10-17T17:23:40.012Z,101997.62
2018-10-17T17:26:08.883Z,102008.95
2018-10-17T17:28:37.735Z,102008.57
2018-10-17T17:31:06.709Z,102015.31
2018-10-17T17:33:35.608Z,102019.27
2018-10-17T17:36:04.657Z,102020.10
2018-10-17T17:38:33.843Z,102021.73
2018-10-17T17:41:02.656Z,102027.73
2018-10-17T17:43:31.953Z,102027.30
2018-10-17T17:46:01.428Z,102031.51
2018-10-17T17:48:30.293Z,102031.98
2018-10-17T17:50:59.150Z,102027.05
2018-10-17T17:53:28.351Z,102038.80
2018-10-17T17:55:57.279Z,102035.75
2018-10-17T17:58:26.928Z,102036.55
2018-10-17T18:00:56.047Z,102034.67
2018-10-17T18:03:24.911Z,102034.03
2018-10-17T18:05:53.815Z,102029.63
2018-10-17T18:08:24.038Z,102034.03
2018-10-17T18:10:53.436Z,102033.22
2018-10-17T18:13:22.256Z,102034.18
2018-10-17T18:15:51.228Z,102031.27
2018-10-17T18:18:19.992Z,102038.82
2018-10-17T18:20:49.095Z,102042.86
2018-10-17T18:23:17.843Z,102047.20
2018-10-17T18:25:47.341Z,102048.04
2018-10-17T18:28:16.297Z,102053.49
2018-10-17T18:30:45.033Z,102056.66
2018-10-17T18:33:14.249Z,102060.58
2018-10-17T18:35:43.106Z,102060.31
2018-10-17T18:38:12.079Z,102068.10
2018-10-17T18:40:41.125Z,102071.00
2018-10-17T18:43:09.905Z,102065.78
2018-10-17T18:45:39.783Z,102073.67
2018-10-17T18:48:08.698Z,102072.17
2018-10-17T18:50:37.525Z,102075.65
2018-10-17T18:53:06.374Z,102076.13
2018-10-17T18:55:35.177Z,102076.98
2018-10-17T18:58:04.192Z,102074.95
2018-10-17T19:00:33.335Z,102083.75
2018-10-17T19:03:02.210Z,102085.81
2018-10-17T19:05:30.971Z,102085.77
2018-10-17T19:07:59.857Z,102079.92
2018-10-17T19:10:28.732Z,102078.81
2018-10-17T19:12:57.630Z,102088.70
2018-10-17T19:15:26.417Z,102085.81
2018-10-17T19:17:55.546Z,102088.95
2018-10-17T19:20:24.852Z,102089.78
2018-10-17T19:22:54.792Z,102101.52
2018-10-17T19:25:23.961Z,102107.16
2018-10-17T19:27:52.881Z,102104.69
2018-10-17T19:30:21.810Z,102104.26
2018-10-17T19:32:50.640Z,102114.86
2018-10-17T19:35:19.499Z,102111.14
2018-10-17T19:37:54.407Z,102117.42
2018-10-17T19:40:23.251Z,102115.11
2018-10-17T19:42:52.150Z,102123.95
2018-10-17T19:45:26.309Z,102120.16
2018-10-17T19:48:01.237Z,102119.48
2018-10-17T19:50:36.001Z,102119.96
2018-10-17T19:53:11.296Z,102120.22
2018-10-17T19:55:46.222Z,102119.95
2018-10-17T19:58:21.082Z,102123.73
2018-10-17T20:00:49.921Z,102116.86
2018-10-17T20:03:18.728Z,102120.56
2018-10-17T20:05:47.624Z,102122.50
2018-10-17T20:08:16.432Z,102119.64
2018-10-17T20:10:45.278Z,102115.64
2018-10-17T20:13:14.044Z,102114.73
2018-10-17T20:15:42.970Z,102116.00
2018-10-17T20:18:11.851Z,102115.69
2018-10-17T20:20:40.672Z,102118.19
2018-10-17T20:23:09.511Z,102115.03
2018-10-17T20:25:38.382Z,102112.84
2018-10-17T20:28:07.192Z,102119.80
2018-10-17T20:30:36.267Z,102115.80
2018-10-17T20:33:05.190Z,102118.89
2018-10-17T20:35:34.058Z,102115.95
2018-10-17T20:38:02.857Z,102117.91
2018-10-17T20:40:31.783Z,102117.56
2018-10-17T20:43:00.698Z,102114.95
2018-10-17T20:45:29.648Z,102113.13
2018-10-17T20:47:58.469Z,102114.84
2018-10-17T20:50:27.305Z,102114.98
2018-10-17T20:52:56.202Z,102112.91
2018-10-17T20:55:25.087Z,102111.64
2018-10-17T20:57:53.872Z,102118.72
2018-10-17T21:00:22.730Z,102118.73
2018-10-17T21:02:51.534Z,102116.68
2018-10-17T21:05:20.346Z,102121.14
2018-10-17T21:07:49.404Z,102119.64
2018-10-17T21:10:18.189Z,102118.98
2018-10-17T21:12:47.060Z,102122.50
2018-10-17T21:15:15.841Z,102124.23
2018-10-17T21:17:44.765Z,102124.68
2018-10-17T21:20:13.662Z,102126.97
2018-10-17T21:22:42.725Z,102121.48
2018-10-17T21:25:11.557Z,102126.98
2018-10-17T21:27:40.433Z,102128.55
2018-10-17T21:30:10.075Z,102138.73
2018-10-17T21:32:39.025Z,102136.91
2018-10-17T21:35:07.971Z,102134.14
2018-10-17T21:37:37.140Z,102129.94
2018-10-17T21:40:06.567Z,102135.88
2018-10-17T21:42:36.316Z,102133.99
2018-10-17T21:45:11.666Z,102131.02
2018-10-17T21:47:40.848Z,102136.85
2018-10-17T21:50:09.913Z,102138.78
2018-10-17T21:52:38.894Z,102137.66
2018-10-17T21:55:07.877Z,102139.38
2018-10-17T21:57:36.756Z,102145.84
2018-10-17T22:00:08.557Z,102141.08
2018-10-17T22:02:37.518Z,102139.47
2018-10-17T22:05:08.543Z,102136.82
2018-10-17T22:07:37.493Z,102138.48
2018-10-17T22:10:07.216Z,102135.42
2018-10-17T22:12:36.192Z,102138.07
2018-10-17T22:15:06.968Z,102136.41
2018-10-17T22:17:35.798Z,102141.81
2018-10-17T22:20:05.534Z,102139.00
2018-10-17T22:22:34.309Z,102141.00
2018-10-17T22:25:03.261Z,102144.42
2018-10-17T22:27:32.121Z,102138.36
2018-10-17T22:30:01.035Z,102136.30
2018-10-17T22:32:29.912Z,102143.36
2018-10-17T22:34:58.825Z,102142.97
2018-10-17T22:37:28.048Z,102142.27
2018-10-17T22:39:57.276Z,102134.96
2018-10-17T22:42:26.078Z,102145.49
2018-10-17T22:44:54.989Z,102148.58
2018-10-17T22:47:23.828Z,102146.22
2018-10-17T22:49:52.678Z,102147.22
2018-10-17T22:52:21.525Z,102152.54
2018-10-17T22:54:50.399Z,102151.23
2018-10-17T22:57:19.313Z,102153.80
2018-10-17T22:59:48.189Z,102154.83
2018-10-17T23:02:17.019Z,102153.45
2018-10-17T23:04:45.854Z,102153.41
2018-10-17T23:07:14.742Z,102160.73
2018-10-17T23:09:43.611Z,102158.72
2018-10-17T23:12:12.531Z,102158.45
2018-10-17T23:14:41.353Z,102161.19
2018-10-17T23:17:10.235Z,102156.14
2018-10-17T23:19:39.050Z,102160.17
2018-10-17T23:22:07.982Z,102152.52
2018-10-17T23:24:37.050Z,102152.20
2018-10-17T23:27:05.955Z,102154.09
2018-10-17T23:29:34.800Z,102144.39
2018-10-17T23:32:03.728Z,102144.35
2018-10-17T23:34:32.624Z,102145.89
2018-10-17T23:37:01.490Z,102140.02
2018-10-17T23:39:30.269Z,102142.85
2018-10-17T23:41:59.207Z,102151.19
2018-10-17T23:44:28.062Z,102146.64
2018-10-17T23:46:57.070Z,102152.64
2018-10-17T23:49:25.891Z,102155.80
2018-10-17T23:51:54.738Z,102162.42
2018-10-17T23:54:23.547Z,102159.53
2018-10-17T23:56:52.451Z,102165.52
2018-10-17T23:59:21.406Z,102169.51
